ΕΜΥ, Εθνική Μετεωρολογική Υπηρεσία - Δελτία Καιρού, Προγνώσεις

ΑΕΡΟΝΑΥΤΙΛΙΑ

GREEK AIRPORTS CODES

LGTP 011500Z 14008KT 9999 SCT020 SCT030 20/10 Q1013 RMK FEW080=

EUROPEAN AIRPORTS CODES

LFPO 011530Z 02009KT 340V070 CAVOK 26/12 Q1017 NOSIG=